sensor_id;sensor_type;location;lat;lon;timestamp;pressure;altitude;pressure_sealevel;temperature;humidity
44044;BME280;29709;52.396;16.796;2022-12-11T00:01:18;101045.97;;;0.35;75.66
44044;BME280;29709;52.396;16.796;2022-12-11T00:04:22;101040.26;;;0.39;75.90
44044;BME280;29709;52.396;16.796;2022-12-11T00:07:25;101046.52;;;0.40;75.14
44044;BME280;29709;52.396;16.796;2022-12-11T00:10:30;101041.13;;;0.40;75.32
44044;BME280;29709;52.396;16.796;2022-12-11T00:14:03;101033.01;;;0.40;75.37
44044;BME280;29709;52.396;16.796;2022-12-11T00:17:06;101027.04;;;0.35;75.20
44044;BME280;29709;52.396;16.796;2022-12-11T00:20:10;101024.55;;;0.32;75.32
44044;BME280;29709;52.396;16.796;2022-12-11T00:23:15;101022.71;;;0.32;75.46
44044;BME280;29709;52.396;16.796;2022-12-11T00:26:20;101021.74;;;0.33;75.62
44044;BME280;29709;52.396;16.796;2022-12-11T00:29:26;101019.91;;;0.34;75.45
44044;BME280;29709;52.396;16.796;2022-12-11T00:32:30;101022.40;;;0.37;75.30
44044;BME280;29709;52.396;16.796;2022-12-11T00:35:39;101009.19;;;0.32;74.87
44044;BME280;29709;52.396;16.796;2022-12-11T00:39:09;101013.14;;;0.26;75.35
44044;BME280;29709;52.396;16.796;2022-12-11T00:42:12;101014.88;;;0.27;74.71
44044;BME280;29709;52.396;16.796;2022-12-11T00:45:16;101013.14;;;0.26;75.13
44044;BME280;29709;52.396;16.796;2022-12-11T00:48:21;101006.48;;;0.32;75.24
44044;BME280;29709;52.396;16.796;2022-12-11T00:51:26;101012.55;;;0.36;74.55
44044;BME280;29709;52.396;16.796;2022-12-11T00:54:32;101010.06;;;0.33;74.64
44044;BME280;29709;52.396;16.796;2022-12-11T00:57:36;101009.26;;;0.31;74.27
44044;BME280;29709;52.396;16.796;2022-12-11T01:00:42;101008.33;;;0.32;74.42
44044;BME280;29709;52.396;16.796;2022-12-11T01:04:15;101012.93;;;0.29;74.19
44044;BME280;29709;52.396;16.796;2022-12-11T01:07:19;101010.34;;;0.28;74.02
44044;BME280;29709;52.396;16.796;2022-12-11T01:10:22;101011.96;;;0.31;74.10
44044;BME280;29709;52.396;16.796;2022-12-11T01:13:27;101018.23;;;0.31;73.51
44044;BME280;29709;52.396;16.796;2022-12-11T01:16:32;101014.97;;;0.26;73.59
44044;BME280;29709;52.396;16.796;2022-12-11T01:19:37;101012.17;;;0.27;73.64
44044;BME280;29709;52.396;16.796;2022-12-11T01:22:42;101006.77;;;0.27;73.43
44044;BME280;29709;52.396;16.796;2022-12-11T01:25:47;101015.95;;;0.25;72.94
44044;BME280;29709;52.396;16.796;2022-12-11T01:29:21;101015.95;;;0.25;73.31
44044;BME280;29709;52.396;16.796;2022-12-11T01:32:24;101010.64;;;0.23;73.30
44044;BME280;29709;52.396;16.796;2022-12-11T01:35:28;101017.67;;;0.26;73.18
44044;BME280;29709;52.396;16.796;2022-12-11T01:38:33;101011.03;;;0.32;73.27
44044;BME280;29709;52.396;16.796;2022-12-11T01:41:38;101011.09;;;0.30;72.83
44044;BME280;29709;52.396;16.796;2022-12-11T01:48:05;101009.19;;;0.32;72.71
44044;BME280;29709;52.396;16.796;2022-12-11T01:51:40;101002.22;;;0.28;72.42
44044;BME280;29709;52.396;16.796;2022-12-11T01:54:47;101004.37;;;0.23;72.80
44044;BME280;29709;52.396;16.796;2022-12-11T01:57:51;101002.53;;;0.23;72.78
44044;BME280;29709;52.396;16.796;2022-12-11T02:00:55;101003.96;;;0.29;72.73
44044;BME280;29709;52.396;16.796;2022-12-11T02:03:58;101009.47;;;0.27;72.16
44044;BME280;29709;52.396;16.796;2022-12-11T02:07:03;101010.74;;;0.22;72.38
44044;BME280;29709;52.396;16.796;2022-12-11T02:10:07;101002.70;;;0.20;72.57
44044;BME280;29709;52.396;16.796;2022-12-11T02:13:18;100993.83;;;0.18;72.83
44044;BME280;29709;52.396;16.796;2022-12-11T02:16:59;101004.46;;;0.21;72.98
44044;BME280;29709;52.396;16.796;2022-12-11T02:30:19;101005.51;;;0.19;72.86
44044;BME280;29709;52.396;16.796;2022-12-11T02:33:35;100992.86;;;0.19;72.71
44044;BME280;29709;52.396;16.796;2022-12-11T02:36:37;100990.09;;;0.21;73.08
44044;BME280;29709;52.396;16.796;2022-12-11T02:39:43;100979.84;;;0.26;72.77
44044;BME280;29709;52.396;16.796;2022-12-11T02:42:47;100994.98;;;0.28;72.97
44044;BME280;29709;52.396;16.796;2022-12-11T02:45:52;100988.99;;;0.38;72.76
44044;BME280;29709;52.396;16.796;2022-12-11T02:48:56;100996.44;;;0.34;72.19
44044;BME280;29709;52.396;16.796;2022-12-11T02:52:26;100986.70;;;0.32;72.47
44044;BME280;29709;52.396;16.796;2022-12-11T02:55:32;100984.00;;;0.32;72.47
44044;BME280;29709;52.396;16.796;2022-12-11T02:58:44;100985.03;;;0.29;72.67
44044;BME280;29709;52.396;16.796;2022-12-11T03:01:49;100979.63;;;0.29;72.42
44044;BME280;29709;52.396;16.796;2022-12-11T03:04:52;100994.21;;;0.26;71.99
44044;BME280;29709;52.396;16.796;2022-12-11T03:07:56;100990.09;;;0.21;72.44
44044;BME280;29709;52.396;16.796;2022-12-11T03:10:59;100987.55;;;0.18;72.37
44044;BME280;29709;52.396;16.796;2022-12-11T03:14:02;100985.45;;;0.23;72.62
44044;BME280;29709;52.396;16.796;2022-12-11T03:21:02;100992.34;;;0.41;71.92
44044;BME280;29709;52.396;16.796;2022-12-11T03:27:29;100992.10;;;0.32;72.06
44044;BME280;29709;52.396;16.796;2022-12-11T03:31:05;101002.99;;;0.30;72.04
44044;BME280;29709;52.396;16.796;2022-12-11T03:34:15;100995.08;;;0.27;72.00
44044;BME280;29709;52.396;16.796;2022-12-11T03:37:22;100999.82;;;0.23;71.87
44044;BME280;29709;52.396;16.796;2022-12-11T03:40:30;101007.34;;;0.18;71.62
44044;BME280;29709;52.396;16.796;2022-12-11T03:43:36;101007.54;;;0.15;71.18
44044;BME280;29709;52.396;16.796;2022-12-11T03:46:43;101000.78;;;0.08;71.59
44044;BME280;29709;52.396;16.796;2022-12-11T03:50:17;100992.21;;;0.02;71.92
44044;BME280;29709;52.396;16.796;2022-12-11T03:53:22;100989.61;;;0.00;72.09
44044;BME280;29709;52.396;16.796;2022-12-11T03:56:29;100987.84;;;-0.01;72.00
44044;BME280;29709;52.396;16.796;2022-12-11T03:59:33;100986.70;;;0.03;72.14
44044;BME280;29709;52.396;16.796;2022-12-11T04:02:36;100990.48;;;0.01;71.75
44044;BME280;29709;52.396;16.796;2022-12-11T04:05:48;100982.54;;;-0.03;71.35
44044;BME280;29709;52.396;16.796;2022-12-11T04:08:52;100989.98;;;-0.06;71.60
44044;BME280;29709;52.396;16.796;2022-12-11T04:11:55;101000.19;;;-0.11;71.22
44044;BME280;29709;52.396;16.796;2022-12-11T04:14:57;100986.62;;;-0.10;71.58
44044;BME280;29709;52.396;16.796;2022-12-11T04:18:28;100996.63;;;-0.12;71.71
44044;BME280;29709;52.396;16.796;2022-12-11T04:21:43;100990.48;;;0.01;71.83
44044;BME280;29709;52.396;16.796;2022-12-11T04:25:03;100993.84;;;0.04;71.35
44044;BME280;29709;52.396;16.796;2022-12-11T04:28:07;100978.80;;;0.00;71.14
44044;BME280;29709;52.396;16.796;2022-12-11T04:31:11;100979.37;;;0.05;71.03
44044;BME280;29709;52.396;16.796;2022-12-11T04:34:42;100979.73;;;-0.01;70.49
44044;BME280;29709;52.396;16.796;2022-12-11T04:37:45;100969.60;;;-0.12;70.82
44044;BME280;29709;52.396;16.796;2022-12-11T04:40:48;100961.70;;;-0.15;70.79
44044;BME280;29709;52.396;16.796;2022-12-11T04:43:50;100955.54;;;-0.17;70.85
44044;BME280;29709;52.396;16.796;2022-12-11T04:46:53;100949.54;;;-0.22;71.02
44044;BME280;29709;52.396;16.796;2022-12-11T04:49:56;100948.66;;;-0.22;71.08
44044;BME280;29709;52.396;16.796;2022-12-11T04:52:59;100952.33;;;-0.23;71.34
44044;BME280;29709;52.396;16.796;2022-12-11T04:56:09;100942.40;;;-0.23;70.97
44044;BME280;29709;52.396;16.796;2022-12-11T04:59:13;100948.01;;;-0.26;70.88
44044;BME280;29709;52.396;16.796;2022-12-11T05:02:16;100945.61;;;-0.31;71.41
44044;BME280;29709;52.396;16.796;2022-12-11T05:05:51;100933.84;;;-0.30;71.46
44044;BME280;29709;52.396;16.796;2022-12-11T05:08:54;100934.40;;;-0.24;71.14
44044;BME280;29709;52.396;16.796;2022-12-11T05:11:57;100937.41;;;-0.29;70.71
44044;BME280;29709;52.396;16.796;2022-12-11T05:15:00;100933.26;;;-0.20;70.92
44044;BME280;29709;52.396;16.796;2022-12-11T05:18:03;100928.73;;;-0.20;70.54
44044;BME280;29709;52.396;16.796;2022-12-11T05:21:08;100928.90;;;-0.23;70.07
44044;BME280;29709;52.396;16.796;2022-12-11T05:24:11;100922.62;;;-0.23;70.44
44044;BME280;29709;52.396;16.796;2022-12-11T05:27:14;100909.89;;;-0.21;70.45
44044;BME280;29709;52.396;16.796;2022-12-11T05:30:17;100903.04;;;-0.13;70.71
44044;BME280;29709;52.396;16.796;2022-12-11T05:33:49;100915.30;;;-0.07;69.35
44044;BME280;29709;52.396;16.796;2022-12-11T05:36:52;100919.35;;;-0.14;68.33
44044;BME280;29709;52.396;16.796;2022-12-11T05:39:55;100915.58;;;-0.12;69.03
44044;BME280;29709;52.396;16.796;2022-12-11T05:42:57;100915.86;;;-0.02;69.29
44044;BME280;29709;52.396;16.796;2022-12-11T05:46:11;100921.44;;;0.09;68.69
44044;BME280;29709;52.396;16.796;2022-12-11T05:49:14;100911.87;;;0.18;68.66
44044;BME280;29709;52.396;16.796;2022-12-11T05:52:17;100920.68;;;0.21;68.73
44044;BME280;29709;52.396;16.796;2022-12-11T05:55:20;100907.92;;;0.23;68.66
44044;BME280;29709;52.396;16.796;2022-12-11T05:58:23;100913.71;;;0.32;68.85
44044;BME280;29709;52.396;16.796;2022-12-11T06:01:51;100913.02;;;0.28;68.61
44044;BME280;29709;52.396;16.796;2022-12-11T06:04:54;100924.80;;;0.27;68.38
44044;BME280;29709;52.396;16.796;2022-12-11T06:07:57;100913.39;;;0.36;68.64
44044;BME280;29709;52.396;16.796;2022-12-11T06:11:01;100915.49;;;0.45;68.65
44044;BME280;29709;52.396;16.796;2022-12-11T06:14:03;100915.71;;;0.42;68.67
44044;BME280;29709;52.396;16.796;2022-12-11T06:17:06;100921.88;;;0.44;68.76
44044;BME280;29709;52.396;16.796;2022-12-11T06:20:10;100920.48;;;0.51;68.58
44044;BME280;29709;52.396;16.796;2022-12-11T06:23:13;100921.77;;;0.46;68.47
44044;BME280;29709;52.396;16.796;2022-12-11T06:26:17;100918.30;;;0.44;68.71
44044;BME280;29709;52.396;16.796;2022-12-11T06:29:20;100913.71;;;0.32;68.51
44044;BME280;29709;52.396;16.796;2022-12-11T06:32:51;100923.56;;;0.18;69.05
44044;BME280;29709;52.396;16.796;2022-12-11T06:35:55;100924.73;;;0.14;69.48
44044;BME280;29709;52.396;16.796;2022-12-11T06:38:58;100924.84;;;0.13;69.50
44044;BME280;29709;52.396;16.796;2022-12-11T06:42:04;100921.44;;;0.09;69.83
44044;BME280;29709;52.396;16.796;2022-12-11T06:45:09;100913.44;;;0.08;70.03
44044;BME280;29709;52.396;16.796;2022-12-11T06:48:14;100920.41;;;0.12;70.36
44044;BME280;29709;52.396;16.796;2022-12-11T06:51:21;100927.43;;;0.14;70.20
44044;BME280;29709;52.396;16.796;2022-12-11T06:54:25;100917.01;;;0.08;70.09
44044;BME280;29709;52.396;16.796;2022-12-11T06:57:57;100913.85;;;0.02;70.47
44044;BME280;29709;52.396;16.796;2022-12-11T07:01:01;100920.49;;;-0.04;70.47
44044;BME280;29709;52.396;16.796;2022-12-11T07:04:04;100906.43;;;-0.09;70.64
44044;BME280;29709;52.396;16.796;2022-12-11T07:07:10;100905.36;;;-0.07;70.89
44044;BME280;29709;52.396;16.796;2022-12-11T07:10:14;100907.85;;;-0.04;70.62
44044;BME280;29709;52.396;16.796;2022-12-11T07:13:19;100913.56;;;-0.08;69.98
44044;BME280;29709;52.396;16.796;2022-12-11T07:16:26;100925.41;;;-0.11;69.85
44044;BME280;29709;52.396;16.796;2022-12-11T07:19:29;100934.41;;;-0.10;70.07
44044;BME280;29709;52.396;16.796;2022-12-11T07:23:03;100935.17;;;-0.08;69.69
44044;BME280;29709;52.396;16.796;2022-12-11T07:26:12;100936.05;;;-0.08;69.76
44044;BME280;29709;52.396;16.796;2022-12-11T07:29:15;100934.11;;;-0.06;69.64
44044;BME280;29709;52.396;16.796;2022-12-11T07:32:18;100926.02;;;-0.06;69.42
44044;BME280;29709;52.396;16.796;2022-12-11T07:35:21;100930.65;;;-0.08;69.61
44044;BME280;29709;52.396;16.796;2022-12-11T07:38:25;100936.62;;;-0.03;69.57
44044;BME280;29709;52.396;16.796;2022-12-11T07:41:30;100931.71;;;-0.10;69.40
44044;BME280;29709;52.396;16.796;2022-12-11T07:44:35;100932.09;;;-0.16;69.69
44044;BME280;29709;52.396;16.796;2022-12-11T07:48:09;100937.97;;;-0.24;70.22
44044;BME280;29709;52.396;16.796;2022-12-11T07:51:19;100910.56;;;-0.46;70.07
44044;BME280;29709;52.396;16.796;2022-12-11T07:54:26;100944.04;;;-0.35;70.30
44044;BME280;29709;52.396;16.796;2022-12-11T07:57:29;100946.33;;;-0.43;70.37
44044;BME280;29709;52.396;16.796;2022-12-11T08:00:32;100949.14;;;-0.44;69.89
44044;BME280;29709;52.396;16.796;2022-12-11T08:03:34;100944.91;;;-0.48;68.81
44044;BME280;29709;52.396;16.796;2022-12-11T08:06:39;100941.23;;;-0.62;68.95
44044;BME280;29709;52.396;16.796;2022-12-11T08:09:42;100940.62;;;-0.67;69.16
44044;BME280;29709;52.396;16.796;2022-12-11T08:13:15;100945.66;;;-0.61;68.66
44044;BME280;29709;52.396;16.796;2022-12-11T08:16:18;100943.41;;;-0.68;68.94
44044;BME280;29709;52.396;16.796;2022-12-11T08:19:22;100945.77;;;-0.62;68.68
44044;BME280;29709;52.396;16.796;2022-12-11T08:22:27;100946.88;;;-0.66;68.42
44044;BME280;29709;52.396;16.796;2022-12-11T08:25:32;100939.24;;;-0.74;68.60
44044;BME280;29709;52.396;16.796;2022-12-11T08:28:37;100929.92;;;-0.68;68.02
44044;BME280;29709;52.396;16.796;2022-12-11T08:31:42;100913.42;;;-0.78;68.06
44044;BME280;29709;52.396;16.796;2022-12-11T08:34:49;100904.56;;;-0.80;68.21
44044;BME280;29709;52.396;16.796;2022-12-11T08:38:21;100903.78;;;-0.82;68.21
44044;BME280;29709;52.396;16.796;2022-12-11T08:41:27;100893.15;;;-0.85;68.25
44044;BME280;29709;52.396;16.796;2022-12-11T08:44:30;100903.28;;;-0.89;67.86
44044;BME280;29709;52.396;16.796;2022-12-11T08:47:33;100908.88;;;-0.92;68.59
44044;BME280;29709;52.396;16.796;2022-12-11T08:50:38;100907.52;;;-0.84;68.60
44044;BME280;29709;52.396;16.796;2022-12-11T08:53:43;100908.48;;;-0.85;68.55
44044;BME280;29709;52.396;16.796;2022-12-11T08:56:48;100912.85;;;-0.83;68.48
44044;BME280;29709;52.396;16.796;2022-12-11T08:59:53;100908.89;;;-0.77;68.21
44044;BME280;29709;52.396;16.796;2022-12-11T09:03:26;100905.78;;;-0.85;68.14
44044;BME280;29709;52.396;16.796;2022-12-11T09:06:32;100912.23;;;-0.88;68.08
44044;BME280;29709;52.396;16.796;2022-12-11T09:09:34;100897.76;;;-1.01;68.46
44044;BME280;29709;52.396;16.796;2022-12-11T09:12:39;100909.51;;;-1.02;69.21
44044;BME280;29709;52.396;16.796;2022-12-11T09:15:43;100908.16;;;-0.95;69.01
44044;BME280;29709;52.396;16.796;2022-12-11T09:18:50;100907.59;;;-1.00;69.30
44044;BME280;29709;52.396;16.796;2022-12-11T09:21:55;100906.33;;;-0.95;69.08
44044;BME280;29709;52.396;16.796;2022-12-11T09:24:59;100909.13;;;-0.96;69.20
44044;BME280;29709;52.396;16.796;2022-12-11T09:28:33;100893.23;;;-1.01;69.62
44044;BME280;29709;52.396;16.796;2022-12-11T09:31:36;100893.45;;;-0.90;69.87
44044;BME280;29709;52.396;16.796;2022-12-11T09:34:39;100894.63;;;-0.79;69.90
44044;BME280;29709;52.396;16.796;2022-12-11T09:37:44;100901.20;;;-0.69;69.64
44044;BME280;29709;52.396;16.796;2022-12-11T09:40:49;100893.40;;;-0.60;69.44
44044;BME280;29709;52.396;16.796;2022-12-11T09:50:53;100875.64;;;-0.64;69.89
44044;BME280;29709;52.396;16.796;2022-12-11T09:53:59;100866.98;;;-0.54;69.52
44044;BME280;29709;52.396;16.796;2022-12-11T10:03:45;100865.04;;;-0.52;69.92
44044;BME280;29709;52.396;16.796;2022-12-11T10:13:54;100853.78;;;-0.31;69.57
44044;BME280;29709;52.396;16.796;2022-12-11T10:20:43;100856.07;;;-0.24;69.60
44044;BME280;29709;52.396;16.796;2022-12-11T10:23:53;100847.00;;;-0.23;69.00
44044;BME280;29709;52.396;16.796;2022-12-11T10:27:10;100853.16;;;-0.21;69.46
44044;BME280;29709;52.396;16.796;2022-12-11T10:36:42;100832.66;;;-0.38;69.54
44044;BME280;29709;52.396;16.796;2022-12-11T10:40:12;100841.52;;;-0.36;69.49
44044;BME280;29709;52.396;16.796;2022-12-11T10:43:16;100828.88;;;-0.36;69.65
44044;BME280;29709;52.396;16.796;2022-12-11T10:46:24;100820.20;;;-0.26;69.60
44044;BME280;29709;52.396;16.796;2022-12-11T10:49:32;100821.55;;;-0.19;69.43
44044;BME280;29709;52.396;16.796;2022-12-11T10:52:43;100811.72;;;-0.20;69.40
44044;BME280;29709;52.396;16.796;2022-12-11T10:55:47;100796.55;;;-0.23;69.42
44044;BME280;29709;52.396;16.796;2022-12-11T10:58:51;100792.42;;;-0.28;69.64
44044;BME280;29709;52.396;16.796;2022-12-11T11:02:29;100785.20;;;-0.28;69.88
44044;BME280;29709;52.396;16.796;2022-12-11T11:05:35;100782.07;;;-0.22;70.05
44044;BME280;29709;52.396;16.796;2022-12-11T11:08:41;100776.40;;;-0.17;70.12
44044;BME280;29709;52.396;16.796;2022-12-11T11:11:49;100774.13;;;-0.11;69.50
44044;BME280;29709;52.396;16.796;2022-12-11T11:15:02;100763.32;;;-0.11;69.31
44044;BME280;29709;52.396;16.796;2022-12-11T11:18:14;100761.91;;;-0.16;69.17
44044;BME280;29709;52.396;16.796;2022-12-11T11:21:20;100761.91;;;-0.16;69.71
44044;BME280;29709;52.396;16.796;2022-12-11T11:24:34;100772.23;;;-0.09;70.08
44044;BME280;29709;52.396;16.796;2022-12-11T11:27:53;100762.65;;;0.00;70.28
44044;BME280;29709;52.396;16.796;2022-12-11T11:31:04;100756.82;;;0.06;70.11
44044;BME280;29709;52.396;16.796;2022-12-11T11:34:13;100756.16;;;0.03;69.94
44044;BME280;29709;52.396;16.796;2022-12-11T11:40:44;100763.70;;;-0.03;70.36
44044;BME280;29709;52.396;16.796;2022-12-11T11:44:03;100764.16;;;0.04;69.76
44044;BME280;29709;52.396;16.796;2022-12-11T11:47:12;100763.19;;;0.05;69.81
44044;BME280;29709;52.396;16.796;2022-12-11T11:50:23;100756.06;;;0.04;69.81
44044;BME280;29709;52.396;16.796;2022-12-11T11:53:31;100756.60;;;0.09;69.94
44044;BME280;29709;52.396;16.796;2022-12-11T11:56:43;100753.28;;;0.18;70.28
44044;BME280;29709;52.396;16.796;2022-12-11T12:00:19;100751.69;;;0.28;70.19
44044;BME280;29709;52.396;16.796;2022-12-11T12:03:23;100738.63;;;0.35;69.52
44044;BME280;29709;52.396;16.796;2022-12-11T12:06:37;100733.23;;;0.35;69.62
44044;BME280;29709;52.396;16.796;2022-12-11T12:13:20;100729.10;;;0.29;68.67
44044;BME280;29709;52.396;16.796;2022-12-11T12:16:27;100721.09;;;0.28;68.53
44044;BME280;29709;52.396;16.796;2022-12-11T12:19:40;100727.48;;;0.27;68.24
44044;BME280;29709;52.396;16.796;2022-12-11T12:32:38;100717.51;;;0.15;67.20
44044;BME280;29709;52.396;16.796;2022-12-11T12:39:06;100723.98;;;0.12;66.48
44044;BME280;29709;52.396;16.796;2022-12-11T12:42:18;100714.34;;;0.08;66.27
44044;BME280;29709;52.396;16.796;2022-12-11T12:45:32;100705.48;;;0.06;66.73
44044;BME280;29709;52.396;16.796;2022-12-11T12:48:38;100711.64;;;0.08;67.04
44044;BME280;29709;52.396;16.796;2022-12-11T12:52:30;100708.07;;;0.08;67.01
44044;BME280;29709;52.396;16.796;2022-12-11T12:55:27;100700.64;;;0.11;66.91
44044;BME280;29709;52.396;16.796;2022-12-11T12:58:39;100701.18;;;0.16;67.06
44044;BME280;29709;52.396;16.796;2022-12-11T13:01:46;100692.84;;;0.19;66.75
44044;BME280;29709;52.396;16.796;2022-12-11T13:05:02;100703.59;;;0.21;66.78
44044;BME280;29709;52.396;16.796;2022-12-11T13:08:08;100695.77;;;0.16;66.58
44044;BME280;29709;52.396;16.796;2022-12-11T13:11:37;100711.45;;;0.11;66.81
44044;BME280;29709;52.396;16.796;2022-12-11T13:14:40;100699.96;;;0.08;67.22
44044;BME280;29709;52.396;16.796;2022-12-11T13:17:43;100696.29;;;0.09;66.98
44044;BME280;29709;52.396;16.796;2022-12-11T13:20:47;100709.69;;;0.10;67.45
44044;BME280;29709;52.396;16.796;2022-12-11T13:23:53;100706.59;;;0.16;67.58
44044;BME280;29709;52.396;16.796;2022-12-11T13:30:21;100697.73;;;0.27;67.35
44044;BME280;29709;52.396;16.796;2022-12-11T13:33:25;100698.61;;;0.27;67.48
44044;BME280;29709;52.396;16.796;2022-12-11T13:36:35;100698.38;;;0.31;67.85
44044;BME280;29709;52.396;16.796;2022-12-11T13:39:44;100697.75;;;0.40;67.88
44044;BME280;29709;52.396;16.796;2022-12-11T13:42:54;100696.70;;;0.42;67.71
44044;BME280;29709;52.396;16.796;2022-12-11T13:46:04;100696.48;;;0.45;68.06
44044;BME280;29709;52.396;16.796;2022-12-11T13:49:21;100695.40;;;0.61;67.89
44044;BME280;29709;52.396;16.796;2022-12-11T13:52:25;100689.34;;;0.70;68.14
44044;BME280;29709;52.396;16.796;2022-12-11T13:55:32;100693.78;;;0.71;68.33
44044;BME280;29709;52.396;16.796;2022-12-11T13:58:39;100685.36;;;0.75;68.03
44044;BME280;29709;52.396;16.796;2022-12-11T14:01:42;100689.46;;;0.81;68.23
44044;BME280;29709;52.396;16.796;2022-12-11T14:05:11;100692.27;;;0.79;68.29
44044;BME280;29709;52.396;16.796;2022-12-11T14:08:23;100692.16;;;0.81;68.60
44044;BME280;29709;52.396;16.796;2022-12-11T14:11:40;100694.00;;;0.80;68.87
44044;BME280;29709;52.396;16.796;2022-12-11T14:14:44;100697.56;;;0.81;69.25
44044;BME280;29709;52.396;16.796;2022-12-11T14:17:48;100697.03;;;0.89;69.24
44044;BME280;29709;52.396;16.796;2022-12-11T14:20:57;100707.42;;;0.95;69.21
44044;BME280;29709;52.396;16.796;2022-12-11T14:24:02;100692.81;;;0.97;69.27
44044;BME280;29709;52.396;16.796;2022-12-11T14:27:13;100684.70;;;0.97;69.42
44044;BME280;29709;52.396;16.796;2022-12-11T14:30:25;100692.06;;;0.95;69.62
44044;BME280;29709;52.396;16.796;2022-12-11T14:33:35;100693.98;;;0.93;69.94
44044;BME280;29709;52.396;16.796;2022-12-11T14:36:40;100695.94;;;0.91;70.28
44044;BME280;29709;52.396;16.796;2022-12-11T14:40:17;100693.57;;;0.86;70.59
44044;BME280;29709;52.396;16.796;2022-12-11T14:46:41;100692.82;;;0.84;70.85
44044;BME280;29709;52.396;16.796;2022-12-11T14:49:50;100684.27;;;0.78;71.05
44044;BME280;29709;52.396;16.796;2022-12-11T14:53:01;100699.41;;;0.80;71.04
44044;BME280;29709;52.396;16.796;2022-12-11T14:56:07;100696.18;;;0.75;71.43
44044;BME280;29709;52.396;16.796;2022-12-11T15:00:35;100689.90;;;0.75;71.50
44044;BME280;29709;52.396;16.796;2022-12-11T15:03:41;100697.78;;;0.78;71.52
44044;BME280;29709;52.396;16.796;2022-12-11T15:06:45;100697.67;;;0.79;71.63
44044;BME280;29709;52.396;16.796;2022-12-11T15:09:50;100688.70;;;0.79;71.59
44044;BME280;29709;52.396;16.796;2022-12-11T15:12:53;100691.17;;;0.82;71.70
44044;BME280;29709;52.396;16.796;2022-12-11T15:15:57;100681.56;;;0.78;71.94
44044;BME280;29709;52.396;16.796;2022-12-11T15:19:01;100683.29;;;0.79;72.05
44044;BME280;29709;52.396;16.796;2022-12-11T15:22:07;100688.92;;;0.76;72.07
44044;BME280;29709;52.396;16.796;2022-12-11T15:25:37;100694.54;;;0.73;72.26
44044;BME280;29709;52.396;16.796;2022-12-11T15:28:40;100691.93;;;0.71;72.53
44044;BME280;29709;52.396;16.796;2022-12-11T15:31:43;100688.92;;;0.76;72.60
44044;BME280;29709;52.396;16.796;2022-12-11T15:34:58;100691.28;;;0.80;72.42
44044;BME280;29709;52.396;16.796;2022-12-11T15:38:04;100687.09;;;0.76;72.79
44044;BME280;29709;52.396;16.796;2022-12-11T15:41:12;100682.54;;;0.77;72.86
44044;BME280;29709;52.396;16.796;2022-12-11T15:44:19;100685.78;;;0.69;72.90
44044;BME280;29709;52.396;16.796;2022-12-11T15:47:28;100683.41;;;0.65;73.16
44044;BME280;29709;52.396;16.796;2022-12-11T15:50:32;100686.54;;;0.58;73.49
44044;BME280;29709;52.396;16.796;2022-12-11T15:54:00;100688.79;;;0.52;73.61
44044;BME280;29709;52.396;16.796;2022-12-11T15:57:05;100682.73;;;0.48;73.62
44044;BME280;29709;52.396;16.796;2022-12-11T16:00:13;100683.83;;;0.46;73.79
44044;BME280;29709;52.396;16.796;2022-12-11T16:03:18;100680.26;;;0.45;74.46
44044;BME280;29709;52.396;16.796;2022-12-11T16:06:21;100682.62;;;0.37;74.42
44044;BME280;29709;52.396;16.796;2022-12-11T16:09:24;100683.15;;;0.29;74.69
44044;BME280;29709;52.396;16.796;2022-12-11T16:12:27;100690.73;;;0.37;74.71
44044;BME280;29709;52.396;16.796;2022-12-11T16:15:30;100688.44;;;0.31;74.78
44044;BME280;29709;52.396;16.796;2022-12-11T16:18:33;100682.16;;;0.31;75.03
44044;BME280;29709;52.396;16.796;2022-12-11T16:22:04;100676.74;;;0.18;75.30
44044;BME280;29709;52.396;16.796;2022-12-11T16:25:07;100669.39;;;0.20;75.64
44044;BME280;29709;52.396;16.796;2022-12-11T16:28:12;100665.64;;;0.22;75.27
44044;BME280;29709;52.396;16.796;2022-12-11T16:31:15;100659.56;;;0.19;75.59
44044;BME280;29709;52.396;16.796;2022-12-11T16:34:24;100663.35;;;0.16;75.78
44044;BME280;29709;52.396;16.796;2022-12-11T16:37:27;100663.35;;;0.16;75.85
44044;BME280;29709;52.396;16.796;2022-12-11T16:40:30;100663.70;;;0.24;75.65
44044;BME280;29709;52.396;16.796;2022-12-11T16:43:33;100665.53;;;0.24;75.61
44044;BME280;29709;52.396;16.796;2022-12-11T16:46:36;100666.50;;;0.23;75.48
44044;BME280;29709;52.396;16.796;2022-12-11T16:50:07;100673.17;;;0.17;76.02
44044;BME280;29709;52.396;16.796;2022-12-11T16:53:11;100671.34;;;0.18;75.81
44044;BME280;29709;52.396;16.796;2022-12-11T16:56:16;100667.24;;;0.12;76.08
44044;BME280;29709;52.396;16.796;2022-12-11T16:59:19;100669.48;;;0.06;76.02
44044;BME280;29709;52.396;16.796;2022-12-11T17:02:22;100677.59;;;0.06;76.40
44044;BME280;29709;52.396;16.796;2022-12-11T17:05:25;100679.43;;;0.05;76.10
44044;BME280;29709;52.396;16.796;2022-12-11T17:08:28;100678.89;;;0.00;76.56
44044;BME280;29709;52.396;16.796;2022-12-11T17:11:31;100675.65;;;0.08;76.40
44044;BME280;29709;52.396;16.796;2022-12-11T17:14:34;100676.74;;;0.18;76.36
44044;BME280;29709;52.396;16.796;2022-12-11T17:17:37;100677.41;;;0.21;75.99
44044;BME280;29709;52.396;16.796;2022-12-11T17:21:09;100672.20;;;0.18;76.10
44044;BME280;29709;52.396;16.796;2022-12-11T17:24:12;100669.39;;;0.20;75.83
44044;BME280;29709;52.396;16.796;2022-12-11T17:27:15;100667.89;;;0.16;76.28
44044;BME280;29709;52.396;16.796;2022-12-11T17:30:18;100672.20;;;0.18;76.26
44044;BME280;29709;52.396;16.796;2022-12-11T17:33:21;100676.63;;;0.19;76.18
44044;BME280;29709;52.396;16.796;2022-12-11T17:36:25;100673.92;;;0.07;76.65
44044;BME280;29709;52.396;16.796;2022-12-11T17:39:28;100675.46;;;0.11;76.50
44044;BME280;29709;52.396;16.796;2022-12-11T17:42:32;100675.46;;;0.11;76.71